Terminal Aerodrome Forecast
Issued by NWS

Home | Current Version | Previous Version | Text Only | Print | Product List | Glossary On
Versions: 1 2 3 4 5 6 7 8 9 10 11 12 13 14 15 16 17 18 19
000
FTUS41 KBOX 252321
TAFFMH
TAF
KFMH 252321Z 2600/2624 24010KT P6SM FEW250
     FM260300 24011KT P6SM BKN070
     FM260800 24014G22KT P6SM SCT050
     FM261400 28015G25KT P6SM BKN080=

USA.gov is the U.S. government's official web portal to all federal, state and local government web resources and services.